Terminal Aerodrome Forecast
Issued by NWS

Home | Current Version | Previous Version | Text Only | Print | Product List | Glossary On
Versions: 1 2 3 4 5 6 7 8 9 10 11 12 13 14 15 16 17 18 19 20 21 22 23 24 25 26 27 28 29 30 31
000
FTUS41 KBOX 111120
TAFFMH
TAF
KFMH 111120Z 1112/1212 03006G13KT 2SM BR SCT004
     FM111400 06007KT P6SM BKN100
     FM111800 05006KT P6SM SCT100
     FM120000 00000KT P6SM FEW250=

USA.gov is the U.S. government's official web portal to all federal, state and local government web resources and services.